Time;durP1;ratioP1;P1;durP2;ratioP2;P2;SDS_P1;SDS_P2;PMS_P1;PMS_P2;Temp;Humidity;BMP_temperature;BMP_pressure;BME280_temperature;BME280_humidity;BME280_pressure;Samples;Min_cycle;Max_cycle;Signal;HPM_P1;HPM_P2
2022/02/07 00:02:13;;;;;;;2.57;2.33;;;;;;;5.72;100.00;97933.16;15244586;19;20165;-49
2022/02/07 00:07:19;;;;;;;2.30;1.80;;;;;;;5.71;100.00;97942.06;15246340;19;20157;-50
2022/02/07 00:12:23;;;;;;;2.73;2.07;;;;;;;5.67;100.00;97940.66;15230967;19;20145;-51
2022/02/07 00:17:28;;;;;;;2.50;2.20;;;;;;;5.78;100.00;97964.41;15225391;19;20160;-50
2022/02/07 00:22:32;;;;;;;2.10;1.90;;;;;;;5.76;100.00;97961.91;15242904;19;20150;-53
2022/02/07 00:27:37;;;;;;;2.20;2.00;;;;;;;5.80;100.00;97971.25;15240248;19;20157;-51
2022/02/07 00:32:44;;;;;;;1.90;1.80;;;;;;;5.81;100.00;97995.91;15238211;19;20161;-51
2022/02/07 00:37:50;;;;;;;1.30;1.20;;;;;;;5.85;100.00;97964.72;15219530;19;20153;-51
2022/02/07 00:42:59;;;;;;;1.50;1.40;;;;;;;5.72;100.00;98034.53;15231837;19;20498;-51
2022/02/07 00:48:04;;;;;;;1.70;1.60;;;;;;;5.44;100.00;98033.25;15245043;19;20152;-50
2022/02/07 00:53:14;;;;;;;1.87;1.77;;;;;;;5.12;100.00;98050.84;15238126;19;20149;-51
2022/02/07 00:58:23;;;;;;;1.80;1.70;;;;;;;5.03;100.00;98051.56;15223826;19;20165;-50
2022/02/07 01:03:28;;;;;;;1.83;1.60;;;;;;;4.98;100.00;98040.50;15225199;19;20149;-50
2022/02/07 01:08:41;;;;;;;1.60;1.50;;;;;;;4.84;100.00;98052.13;15242854;19;20637;-52
2022/02/07 01:14:09;;;;;;;1.83;1.73;;;;;;;4.87;100.00;98040.50;15237046;19;20145;-51
2022/02/07 01:19:50;;;;;;;1.70;1.60;;;;;;;4.86;100.00;98068.72;15232704;19;20136;-52
2022/02/07 01:46:52;;;;;;;1.40;1.30;;;;;;;5.16;100.00;98088.47;15210662;19;20151;-49
2022/02/07 01:52:18;;;;;;;1.30;1.17;;;;;;;5.12;100.00;98087.84;15239370;19;21145;-49
2022/02/07 01:57:29;;;;;;;1.97;1.30;;;;;;;5.18;100.00;98092.66;15234313;19;21027;-49
2022/02/07 02:02:35;;;;;;;1.40;1.30;;;;;;;5.19;100.00;98098.81;15232772;19;20194;-51
2022/02/07 02:07:41;;;;;;;1.60;1.47;;;;;;;5.20;100.00;98106.59;15214143;19;20156;-52
2022/02/07 02:12:56;;;;;;;1.43;1.37;;;;;;;5.18;100.00;98108.53;15225179;19;20148;-48
2022/02/07 02:49:59;;;;;;;1.10;1.10;;;;;;;5.00;100.00;98149.56;15226585;19;22349;-50
2022/02/07 02:55:04;;;;;;;1.07;1.00;;;;;;;5.07;100.00;98156.91;15223793;19;20140;-49
2022/02/07 03:00:10;;;;;;;1.70;1.60;;;;;;;5.10;100.00;98147.91;15249115;19;20149;-49
2022/02/07 03:05:17;;;;;;;2.03;1.90;;;;;;;5.09;100.00;98154.16;15242860;19;20137;-49
2022/02/07 03:10:29;;;;;;;1.83;1.73;;;;;;;4.99;100.00;98167.22;15251788;19;20161;-48
2022/02/07 03:20:51;;;;;;;1.43;1.33;;;;;;;4.85;100.00;98185.06;15243736;19;20176;-49
2022/02/07 03:25:56;;;;;;;1.40;1.30;;;;;;;4.85;100.00;98185.06;15246096;19;20183;-49
2022/02/07 03:31:01;;;;;;;1.60;1.50;;;;;;;4.84;100.00;98199.25;15248920;19;20228;-49
2022/02/07 03:36:07;;;;;;;2.33;1.73;;;;;;;4.81;100.00;98199.50;15222296;19;20473;-49
2022/02/07 03:41:12;;;;;;;2.20;2.00;;;;;;;4.78;100.00;98202.38;15232291;19;20167;-50
2022/02/07 03:46:19;;;;;;;3.37;1.70;;;;;;;4.83;100.00;98211.59;15242752;19;20174;-49
2022/02/07 03:51:24;;;;;;;1.97;1.80;;;;;;;4.84;100.00;98223.03;15249006;19;20675;-49
2022/02/07 03:56:28;;;;;;;2.03;1.70;;;;;;;4.79;100.00;98227.81;15234715;19;20209;-48
2022/02/07 04:01:35;;;;;;;3.53;1.40;;;;;;;4.79;100.00;98233.94;15224810;19;20145;-48
2022/02/07 04:06:41;;;;;;;1.37;1.27;;;;;;;4.64;100.00;98225.34;15236692;19;20164;-49
2022/02/07 04:11:57;;;;;;;2.20;1.60;;;;;;;4.61;100.00;98240.56;15245627;19;20151;-49
2022/02/07 04:17:06;;;;;;;2.30;1.40;;;;;;;4.55;100.00;98231.31;15237401;19;21521;-52
2022/02/07 04:22:13;;;;;;;1.90;1.80;;;;;;;4.55;100.00;98246.31;15221028;19;20163;-49
2022/02/07 04:27:29;;;;;;;2.30;2.10;;;;;;;4.54;100.00;98234.91;15230641;19;20179;-49
2022/02/07 04:32:34;;;;;;;2.03;1.60;;;;;;;4.52;100.00;98236.81;15242900;19;21452;-49
2022/02/07 04:37:39;;;;;;;1.97;1.87;;;;;;;4.51;100.00;98239.56;15239298;19;20632;-50
2022/02/07 04:42:44;;;;;;;4.33;2.13;;;;;;;4.44;100.00;98236.53;15228020;19;20157;-51
2022/02/07 04:48:11;;;;;;;2.33;2.10;;;;;;;4.38;100.00;98250.16;15225474;19;20153;-49
2022/02/07 04:53:23;;;;;;;3.17;1.70;;;;;;;4.30;100.00;98257.81;15237028;19;20157;-49
2022/02/07 04:58:43;;;;;;;1.93;1.83;;;;;;;4.17;100.00;98262.28;15238836;19;20149;-49
2022/02/07 05:03:53;;;;;;;3.47;1.60;;;;;;;4.03;100.00;98270.31;15230480;19;21029;-48
2022/02/07 05:14:18;;;;;;;4.57;3.43;;;;;;;4.01;100.00;98277.50;15232821;19;20235;-48
2022/02/07 05:19:24;;;;;;;5.03;2.70;;;;;;;4.07;100.00;98274.44;15237212;19;20223;-49
2022/02/07 05:24:47;;;;;;;2.27;2.07;;;;;;;4.13;100.00;98271.34;15234736;19;20185;-48
2022/02/07 05:30:22;;;;;;;2.17;1.70;;;;;;;4.17;100.00;98291.31;15212571;19;20165;-48
2022/02/07 05:35:45;;;;;;;1.80;1.70;;;;;;;4.24;100.00;98289.91;15226938;19;20159;-49
2022/02/07 05:41:10;;;;;;;1.60;1.50;;;;;;;4.29;100.00;98298.34;15240916;19;20328;-50
2022/02/07 05:46:38;;;;;;;2.50;2.30;;;;;;;4.35;100.00;98308.47;15235795;19;20145;-49
2022/02/07 05:52:02;;;;;;;3.07;2.77;;;;;;;4.46;100.00;98305.94;15217359;19;20164;-48
2022/02/07 05:57:17;;;;;;;4.20;3.40;;;;;;;4.48;100.00;98304.00;15222316;19;20182;-49
2022/02/07 06:02:38;;;;;;;2.77;2.37;;;;;;;4.61;100.00;98314.53;15234600;19;20599;-49
2022/02/07 06:07:48;;;;;;;3.20;2.30;;;;;;;4.65;100.00;98332.69;15234596;19;20587;-49
2022/02/07 06:12:53;;;;;;;2.83;2.23;;;;;;;4.66;100.00;98341.47;15218010;19;20161;-49
2022/02/07 06:18:00;;;;;;;3.67;2.20;;;;;;;4.55;100.00;98355.44;15216476;19;20271;-50
2022/02/07 06:23:07;;;;;;;2.87;2.10;;;;;;;4.44;100.00;98365.94;15230566;19;20280;-50
2022/02/07 06:28:13;;;;;;;2.27;1.40;;;;;;;4.16;100.00;98371.44;15234308;19;20181;-50
2022/02/07 06:33:24;;;;;;;2.13;1.27;;;;;;;3.72;100.00;98382.41;15244378;19;21032;-48
2022/02/07 06:38:30;;;;;;;2.03;1.93;;;;;;;3.43;100.00;98387.81;15223717;19;20363;-50
2022/02/07 06:43:35;;;;;;;2.50;2.30;;;;;;;3.11;100.00;98400.47;15243196;19;20604;-51
2022/02/07 06:48:43;;;;;;;2.63;2.20;;;;;;;2.90;100.00;98417.63;15249182;19;20194;-49
2022/02/07 06:53:51;;;;;;;3.43;2.23;;;;;;;2.64;100.00;98419.28;15277181;19;20159;-52
2022/02/07 06:58:59;;;;;;;2.77;2.57;;;;;;;2.55;100.00;98419.84;15255410;19;20147;-50
2022/02/07 07:04:07;;;;;;;3.07;2.50;;;;;;;2.52;100.00;98430.59;15268050;19;20157;-49
2022/02/07 07:09:13;;;;;;;3.20;2.00;;;;;;;2.57;100.00;98439.03;15280938;19;20155;-50
2022/02/07 07:14:29;;;;;;;2.13;1.93;;;;;;;2.56;100.00;98454.91;15282087;19;20159;-50
2022/02/07 07:19:37;;;;;;;2.10;2.00;;;;;;;2.63;100.00;98457.09;15266903;19;20239;-51
2022/02/07 07:24:45;;;;;;;3.90;3.27;;;;;;;2.76;100.00;98473.84;15255120;19;20226;-50
2022/02/07 07:29:50;;;;;;;9.03;4.67;;;;;;;2.89;100.00;98476.56;15268550;19;20201;-50
2022/02/07 07:34:55;;;;;;;6.80;4.80;;;;;;;3.09;100.00;98499.00;15281282;19;20190;-50
2022/02/07 07:40:02;;;;;;;4.77;3.80;;;;;;;3.22;100.00;98495.50;15270826;19;20175;-50
2022/02/07 07:45:09;;;;;;;2.70;2.50;;;;;;;3.40;100.00;98505.78;15252184;19;20181;-50
2022/02/07 07:50:29;;;;;;;3.33;3.00;;;;;;;3.69;100.00;98530.28;15270284;19;20214;-50
2022/02/07 08:06:36;;;;;;;7.30;6.43;;;;;;;3.75;100.00;98561.53;15257972;19;20151;-50
2022/02/07 08:11:42;;;;;;;5.37;4.87;;;;;;;3.61;100.00;98580.91;15259020;19;20173;-51
2022/02/07 08:16:52;;;;;;;5.83;5.13;;;;;;;3.51;100.00;98591.16;15272026;19;20172;-50
2022/02/07 08:21:57;;;;;;;4.73;4.33;;;;;;;3.37;100.00;98598.28;15264368;19;20709;-50
2022/02/07 08:27:04;;;;;;;4.17;3.77;;;;;;;3.35;100.00;98601.00;15258959;19;20191;-50
2022/02/07 08:32:09;;;;;;;4.97;4.03;;;;;;;3.18;100.00;98620.47;15248567;19;20164;-49
2022/02/07 08:37:14;;;;;;;3.20;2.90;;;;;;;3.05;100.00;98637.13;15264380;19;20154;-51
2022/02/07 08:42:19;;;;;;;2.57;2.37;;;;;;;3.03;100.00;98647.75;15270042;19;20151;-51
2022/02/07 08:47:24;;;;;;;3.33;2.80;;;;;;;3.19;100.00;98652.97;15268469;19;20158;-51
2022/02/07 08:52:31;;;;;;;3.83;3.20;;;;;;;3.35;100.00;98658.16;15241192;19;20143;-50
2022/02/07 08:57:39;;;;;;;4.30;3.50;;;;;;;3.44;100.00;98668.13;15255340;19;20155;-50
2022/02/07 09:03:15;;;;;;;3.80;3.50;;;;;;;3.46;100.00;98679.41;15270075;19;20489;-49
2022/02/07 09:08:26;;;;;;;4.33;3.57;;;;;;;3.37;100.00;98687.91;15266977;19;20162;-50
2022/02/07 09:13:32;;;;;;;4.13;3.73;;;;;;;3.46;100.00;98700.50;15245772;19;20222;-50
2022/02/07 09:18:39;;;;;;;3.90;3.53;;;;;;;3.69;100.00;98710.50;15246574;19;20453;-51
2022/02/07 09:23:45;;;;;;;5.03;4.53;;;;;;;3.75;100.00;98714.53;15266572;19;20149;-50
2022/02/07 09:28:49;;;;;;;6.63;5.00;;;;;;;3.68;100.00;98735.16;15263100;19;20180;-51
2022/02/07 09:33:54;;;;;;;5.23;4.70;;;;;;;3.69;100.00;98744.78;15258417;19;20143;-50
2022/02/07 09:38:59;;;;;;;4.93;4.50;;;;;;;3.80;100.00;98749.41;15233994;19;20151;-51
2022/02/07 09:44:04;;;;;;;4.70;4.30;;;;;;;3.78;100.00;98757.41;15267438;19;20156;-50
2022/02/07 09:49:09;;;;;;;4.70;4.30;;;;;;;3.84;100.00;98770.22;15271389;19;20714;-50
2022/02/07 09:54:20;;;;;;;4.73;4.27;;;;;;;3.86;100.00;98776.25;15274147;19;20182;-50
2022/02/07 09:59:28;;;;;;;4.03;3.70;;;;;;;3.85;100.00;98790.41;15246238;19;20524;-50
2022/02/07 10:04:37;;;;;;;4.70;4.20;;;;;;;3.86;100.00;98802.66;15270260;19;20157;-51
2022/02/07 10:09:53;;;;;;;3.20;3.00;;;;;;;3.61;100.00;98807.72;15281634;19;20191;-50
2022/02/07 10:15:11;;;;;;;3.30;3.00;;;;;;;3.61;100.00;98818.25;15281425;19;20151;-50
2022/02/07 10:20:42;;;;;;;2.80;2.60;;;;;;;3.58;100.00;98819.28;15256526;19;20188;-50
2022/02/07 10:36:55;;;;;;;4.53;4.13;;;;;;;2.69;100.00;98851.69;15265885;19;20837;-52
2022/02/07 10:42:12;;;;;;;4.30;3.90;;;;;;;2.40;100.00;98858.59;15264559;19;20153;-50
2022/02/07 10:47:22;;;;;;;4.87;4.27;;;;;;;2.08;100.00;98883.13;15243148;19;20230;-50
2022/02/07 10:52:26;;;;;;;6.87;4.73;;;;;;;1.74;100.00;98895.41;15273076;19;20178;-50
2022/02/07 10:57:31;;;;;;;6.70;5.83;;;;;;;1.59;100.00;98901.44;15268653;19;20448;-56
2022/02/07 11:02:51;;;;;;;6.73;5.57;;;;;;;1.42;100.00;98918.06;15272469;19;20148;-50
2022/02/07 11:08:07;;;;;;;5.93;5.20;;;;;;;1.31;100.00;98928.25;15249187;19;20145;-49
2022/02/07 11:13:43;;;;;;;7.80;6.13;;;;;;;1.25;100.00;98951.34;15267695;19;20162;-48
2022/02/07 11:19:05;;;;;;;9.10;6.37;;;;;;;1.26;100.00;98979.31;15272733;19;20584;-50
2022/02/07 11:24:37;;;;;;;8.33;7.20;;;;;;;1.45;100.00;98982.75;15270348;19;20180;-49
2022/02/07 11:30:03;;;;;;;10.73;8.33;;;;;;;1.58;100.00;98994.38;15242910;19;20183;-51
2022/02/07 11:35:12;;;;;;;12.10;9.90;;;;;;;1.81;100.00;98998.50;15271086;19;20162;-50
2022/02/07 11:40:33;;;;;;;14.20;10.17;;;;;;;1.98;100.00;99018.69;15278307;19;20525;-49
2022/02/07 11:45:50;;;;;;;13.63;10.50;;;;;;;2.20;100.00;99026.34;15271624;19;20142;-50
2022/02/07 11:50:58;;;;;;;15.33;10.77;;;;;;;2.35;100.00;99039.59;15257937;19;20149;-50
2022/02/07 11:56:14;;;;;;;13.10;10.10;;;;;;;2.52;100.00;99047.47;15259406;19;20484;-48
2022/02/07 12:01:24;;;;;;;14.20;10.53;;;;;;;2.71;100.00;99072.84;15270187;19;20179;-48
2022/02/07 12:06:28;;;;;;;10.87;9.13;;;;;;;2.74;100.00;99076.19;15280387;19;20175;-48
2022/02/07 12:11:45;;;;;;;10.37;7.80;;;;;;;2.81;100.00;99084.59;15270843;19;20171;-51
2022/02/07 12:16:50;;;;;;;10.13;8.10;;;;;;;2.93;100.00;99099.75;15250637;19;20229;-49
2022/02/07 12:21:55;;;;;;;8.90;6.70;;;;;;;3.03;100.00;99111.50;15275637;19;20535;-49
2022/02/07 12:27:01;;;;;;;11.60;7.13;;;;;;;3.17;100.00;99111.63;15279741;19;20190;-49
2022/02/07 12:32:09;;;;;;;10.80;6.60;;;;;;;3.21;100.00;99121.09;15279835;19;20185;-49
2022/02/07 12:37:14;;;;;;;10.73;6.80;;;;;;;3.24;100.00;99126.19;15247175;19;20996;-48
2022/02/07 12:42:19;;;;;;;10.83;7.50;;;;;;;3.26;100.00;99155.94;15260861;19;20176;-50
2022/02/07 12:47:24;;;;;;;8.73;6.83;;;;;;;3.29;100.00;99164.63;15272891;19;20152;-49
2022/02/07 12:52:37;;;;;;;8.77;6.87;;;;;;;3.35;100.00;99185.41;15274945;19;20152;-50
2022/02/07 12:57:43;;;;;;;9.47;6.60;;;;;;;3.43;100.00;99183.22;15258424;19;20506;-48
2022/02/07 13:02:50;;;;;;;8.17;6.33;;;;;;;3.44;100.00;99195.47;15254187;19;20155;-49
2022/02/07 13:07:57;;;;;;;7.63;5.63;;;;;;;3.46;100.00;99209.41;15278926;19;20152;-51
2022/02/07 13:13:27;;;;;;;7.63;5.17;;;;;;;3.43;100.00;99210.44;15275377;19;20160;-51
2022/02/07 13:18:34;;;;;;;6.73;5.53;;;;;;;3.56;100.00;99210.63;15266966;19;20151;-50
2022/02/07 13:23:39;;;;;;;8.50;5.47;;;;;;;3.89;100.00;99219.34;15243081;19;20148;-51
2022/02/07 13:28:43;;;;;;;10.63;5.73;;;;;;;3.90;100.00;99228.13;15263220;19;20194;-48
2022/02/07 13:33:53;;;;;;;7.70;4.60;;;;;;;3.67;100.00;99247.84;15270731;19;20156;-49
2022/02/07 13:39:08;;;;;;;9.67;4.87;;;;;;;3.36;100.00;99258.31;15269115;19;20156;-48
2022/02/07 13:44:12;;;;;;;6.53;4.97;;;;;;;3.47;100.00;99263.88;15246732;19;20155;-50
2022/02/07 13:49:17;;;;;;;5.57;4.40;;;;;;;3.63;100.00;99276.16;15251705;19;21583;-49
2022/02/07 13:54:33;;;;;;;6.13;4.47;;;;;;;3.68;100.00;99298.81;15265791;19;20152;-48
2022/02/07 13:59:38;;;;;;;6.13;4.10;;;;;;;3.83;100.00;99296.22;15266465;19;20192;-50
2022/02/07 14:04:54;;;;;;;4.93;3.80;;;;;;;3.86;100.00;99313.69;15256509;19;20192;-48
2022/02/07 14:09:58;;;;;;;6.47;4.07;;;;;;;3.75;100.00;99327.41;15239129;19;20154;-50
2022/02/07 14:15:04;;;;;;;8.40;4.13;;;;;;;3.79;100.00;99342.16;15262249;19;20473;-48
2022/02/07 14:20:10;;;;;;;5.90;4.07;;;;;;;3.85;100.00;99348.94;15260220;19;20160;-50
2022/02/07 14:25:15;;;;;;;9.37;4.63;;;;;;;3.86;100.00;99356.75;15258370;19;20158;-50
2022/02/07 14:30:20;;;;;;;7.10;3.90;;;;;;;3.66;100.00;99378.03;15235712;19;20271;-49
2022/02/07 14:35:24;;;;;;;6.27;4.00;;;;;;;3.57;100.00;99387.28;15251796;19;20160;-49
2022/02/07 14:40:29;;;;;;;9.00;4.60;;;;;;;3.62;100.00;99400.25;15260471;19;20156;-48
2022/02/07 14:45:37;;;;;;;6.77;4.00;;;;;;;3.58;100.00;99403.94;15265112;19;20484;-49
2022/02/07 14:50:41;;;;;;;7.70;4.20;;;;;;;3.53;100.00;99421.78;15260993;19;20228;-49
2022/02/07 14:55:46;;;;;;;7.00;3.50;;;;;;;3.39;100.00;99430.38;15261469;19;20197;-49
2022/02/07 15:00:52;;;;;;;6.67;3.70;;;;;;;3.46;100.00;99446.75;15262183;19;20651;-49
2022/02/07 15:05:57;;;;;;;7.20;3.73;;;;;;;3.46;100.00;99454.66;15265300;19;20658;-52
2022/02/07 15:11:02;;;;;;;6.50;3.23;;;;;;;3.40;100.00;99462.88;15195043;19;20789;-48
2022/02/07 15:16:07;;;;;;;7.47;3.80;;;;;;;3.36;100.00;99471.88;15251399;19;20146;-49
2022/02/07 15:21:12;;;;;;;10.70;5.97;;;;;;;3.18;100.00;99485.00;15267685;19;20149;-48
2022/02/07 15:26:20;;;;;;;10.30;4.67;;;;;;;3.06;100.00;99490.00;15276281;19;20200;-48
2022/02/07 15:31:30;;;;;;;8.53;4.60;;;;;;;2.91;100.00;99491.56;15278047;19;20148;-48
2022/02/07 15:36:34;;;;;;;5.73;3.60;;;;;;;2.89;100.00;99509.25;15251854;19;20637;-50
2022/02/07 15:41:42;;;;;;;5.53;3.37;;;;;;;2.96;100.00;99521.19;15254102;19;20264;-50
2022/02/07 15:46:47;;;;;;;7.63;3.60;;;;;;;3.04;100.00;99528.72;15274177;19;20713;-48
2022/02/07 15:51:52;;;;;;;4.60;3.47;;;;;;;3.11;100.00;99538.09;15274661;19;20146;-49
2022/02/07 15:56:56;;;;;;;7.10;4.10;;;;;;;3.19;100.00;99554.38;15262658;19;20545;-50
2022/02/07 16:02:01;;;;;;;5.57;3.10;;;;;;;3.21;100.00;99563.94;15242962;19;20157;-50
2022/02/07 16:07:06;;;;;;;11.57;3.43;;;;;;;3.32;100.00;99581.91;15265909;19;20643;-50
2022/02/07 16:12:17;;;;;;;6.30;4.00;;;;;;;3.40;100.00;99589.44;15269622;19;20596;-49
2022/02/07 16:17:21;;;;;;;6.20;4.47;;;;;;;3.22;100.00;99578.84;15272082;19;20193;-50
2022/02/07 16:22:26;;;;;;;7.73;3.57;;;;;;;3.17;100.00;99599.28;15235404;19;20155;-49
2022/02/07 16:27:30;;;;;;;8.23;4.30;;;;;;;3.25;100.00;99601.56;15259111;19;20630;-50
2022/02/07 16:32:35;;;;;;;7.67;4.10;;;;;;;3.29;100.00;99603.13;15236208;19;20606;-51
2022/02/07 16:37:41;;;;;;;7.50;3.93;;;;;;;3.28;100.00;99616.38;15241722;19;20166;-52
2022/02/07 16:42:45;;;;;;;5.67;4.40;;;;;;;3.34;100.00;99610.84;15215048;19;20688;-51
2022/02/07 16:47:51;;;;;;;8.57;4.10;;;;;;;3.24;100.00;99610.41;15216784;19;20658;-52
2022/02/07 16:52:56;;;;;;;9.40;5.50;;;;;;;3.18;100.00;99627.34;15243421;19;20623;-51
2022/02/07 16:58:01;;;;;;;7.03;4.70;;;;;;;3.04;100.00;99629.75;15239895;19;20152;-52
2022/02/07 17:03:11;;;;;;;8.23;4.10;;;;;;;2.89;100.00;99640.97;15240517;19;20147;-49
2022/02/07 17:08:16;;;;;;;7.43;3.70;;;;;;;2.90;100.00;99651.44;15213142;19;20665;-51
2022/02/07 17:13:21;;;;;;;6.03;3.20;;;;;;;2.89;100.00;99667.34;15234583;19;20647;-53
2022/02/07 17:18:26;;;;;;;6.43;3.70;;;;;;;2.89;100.00;99672.59;15235811;19;20614;-49
2022/02/07 17:23:30;;;;;;;7.87;4.30;;;;;;;2.74;100.00;99689.06;15242879;19;20150;-51
2022/02/07 17:28:36;;;;;;;9.90;6.23;;;;;;;2.52;100.00;99689.97;15213908;19;20540;-52
2022/02/07 17:33:41;;;;;;;12.10;7.67;;;;;;;2.32;100.00;99716.22;15226446;19;20230;-51
2022/02/07 17:38:48;;;;;;;10.40;5.60;;;;;;;2.22;100.00;99721.94;15230656;19;21654;-50
2022/02/07 17:43:55;;;;;;;9.67;5.00;;;;;;;2.10;100.00;99728.53;15250896;19;20155;-52
2022/02/07 17:49:01;;;;;;;9.80;6.03;;;;;;;2.01;100.00;99732.41;15262249;19;20645;-51
2022/02/07 17:54:07;;;;;;;9.97;7.00;;;;;;;1.98;100.00;99760.59;15247653;19;20174;-51
2022/02/07 17:59:13;;;;;;;11.70;8.40;;;;;;;1.87;100.00;99766.25;15269428;19;20178;-51
2022/02/07 18:04:18;;;;;;;13.23;7.83;;;;;;;1.84;100.00;99765.50;15272900;19;20143;-52
2022/02/07 18:09:22;;;;;;;9.50;6.60;;;;;;;1.87;100.00;99773.28;15266921;19;20149;-51
2022/02/07 18:14:27;;;;;;;11.10;6.23;;;;;;;1.88;100.00;99790.78;15241540;19;20145;-50
2022/02/07 18:19:37;;;;;;;12.97;8.63;;;;;;;1.99;100.00;99778.09;15242076;19;20142;-51
2022/02/07 18:24:42;;;;;;;15.33;8.40;;;;;;;2.05;100.00;99777.88;15242580;19;20161;-50
2022/02/07 18:29:52;;;;;;;15.27;7.90;;;;;;;2.13;100.00;99786.31;15237503;19;20201;-52
2022/02/07 18:34:57;;;;;;;10.90;6.50;;;;;;;2.17;100.00;99796.66;15234539;19;20150;-54
2022/02/07 18:40:02;;;;;;;8.03;4.97;;;;;;;2.18;100.00;99797.50;15225458;19;20282;-53
2022/02/07 18:45:11;;;;;;;9.53;4.80;;;;;;;2.09;100.00;99811.03;15237924;19;20152;-51
2022/02/07 18:50:16;;;;;;;12.63;5.73;;;;;;;1.98;100.00;99810.56;15243776;19;20820;-51
2022/02/07 18:55:26;;;;;;;10.33;5.20;;;;;;;1.92;100.00;99808.19;15243668;19;20205;-52
2022/02/07 19:00:32;;;;;;;11.43;5.23;;;;;;;1.85;100.00;99825.97;15214711;19;20205;-51
2022/02/07 19:06:01;;;;;;;10.90;4.77;;;;;;;1.77;100.00;99828.03;15233300;19;20154;-49
2022/02/07 19:11:09;;;;;;;10.97;4.47;;;;;;;1.68;100.00;99826.59;15245736;19;20224;-52
2022/02/07 19:16:14;;;;;;;12.30;4.37;;;;;;;1.66;100.00;99852.06;15242282;19;20157;-51
2022/02/07 19:21:20;;;;;;;12.07;4.40;;;;;;;1.72;100.00;99858.88;15224236;19;20149;-51
2022/02/07 19:26:30;;;;;;;12.30;4.17;;;;;;;1.74;100.00;99881.59;15227743;19;20956;-52
2022/02/07 19:31:43;;;;;;;15.73;5.20;;;;;;;1.76;100.00;99892.06;15244816;19;20218;-50
2022/02/07 19:36:50;;;;;;;10.60;4.83;;;;;;;1.74;100.00;99888.63;15239159;19;20609;-51
2022/02/07 19:42:02;;;;;;;11.50;4.90;;;;;;;1.76;100.00;99890.28;15233218;19;20152;-49
2022/02/07 19:47:12;;;;;;;11.20;4.77;;;;;;;1.78;100.00;99901.63;15221219;19;20309;-48
2022/02/07 19:52:17;;;;;;;11.17;4.60;;;;;;;1.78;100.00;99900.75;15239486;19;20714;-49
2022/02/07 19:57:21;;;;;;;15.03;6.23;;;;;;;1.77;100.00;99905.16;15238425;19;20229;-51
2022/02/07 20:02:27;;;;;;;14.13;6.30;;;;;;;1.83;100.00;99919.00;15239060;19;20234;-51
2022/02/07 20:07:36;;;;;;;16.50;6.40;;;;;;;1.91;100.00;99922.22;15214986;19;20146;-51
2022/02/07 20:12:43;;;;;;;14.97;4.90;;;;;;;2.01;100.00;99944.66;15236136;19;20196;-52
2022/02/07 20:17:48;;;;;;;9.23;4.03;;;;;;;2.08;100.00;99940.88;15237936;19;20142;-50
2022/02/07 20:22:53;;;;;;;12.70;4.80;;;;;;;2.10;100.00;99954.88;15241829;19;20183;-48
2022/02/07 20:28:01;;;;;;;12.97;4.73;;;;;;;2.12;100.00;99956.53;15218662;19;20196;-52
2022/02/07 20:33:08;;;;;;;12.63;4.80;;;;;;;2.06;100.00;99961.13;15227111;19;20192;-50
2022/02/07 20:38:12;;;;;;;20.73;5.83;;;;;;;2.06;100.00;99963.75;15238876;19;20351;-51
2022/02/07 20:43:17;;;;;;;9.00;4.63;;;;;;;2.15;100.00;99966.97;15241313;19;20169;-51
2022/02/07 20:48:29;;;;;;;13.03;4.60;;;;;;;2.19;100.00;99978.22;15230905;19;20153;-49
2022/02/07 20:53:33;;;;;;;10.00;4.20;;;;;;;2.10;100.00;99976.78;15215906;19;20152;-53
2022/02/07 20:58:38;;;;;;;11.23;4.57;;;;;;;2.00;100.00;99995.56;15262757;19;20150;-49
2022/02/07 21:04:06;;;;;;;16.20;5.37;;;;;;;1.92;100.00;99997.63;15271816;19;20161;-49
2022/02/07 21:09:13;;;;;;;13.97;4.50;;;;;;;1.92;100.00;99993.22;15275252;19;20141;-50
2022/02/07 21:14:18;;;;;;;15.23;5.10;;;;;;;1.95;100.00;100003.63;15247799;19;20191;-49
2022/02/07 21:19:27;;;;;;;9.87;4.43;;;;;;;1.93;100.00;100015.13;15259663;19;20180;-51
2022/02/07 21:24:32;;;;;;;12.27;4.10;;;;;;;1.88;100.00;100006.50;15275332;19;20150;-48
2022/02/07 21:29:36;;;;;;;13.80;5.27;;;;;;;1.94;100.00;100024.72;15270061;19;20669;-50
2022/02/07 21:34:52;;;;;;;13.47;4.63;;;;;;;2.02;100.00;100031.47;15259722;19;20162;-48
2022/02/07 21:39:56;;;;;;;16.10;4.40;;;;;;;2.18;100.00;100043.16;15249272;19;20166;-50
2022/02/07 21:45:05;;;;;;;14.13;5.33;;;;;;;2.32;100.00;100045.31;15274818;19;20145;-51
2022/02/07 21:50:11;;;;;;;10.53;4.00;;;;;;;2.45;100.00;100051.88;15273774;19;20160;-51
2022/02/07 21:55:16;;;;;;;13.17;4.17;;;;;;;2.58;100.00;100067.25;15271698;19;20478;-51
2022/02/07 22:00:21;;;;;;;13.47;4.30;;;;;;;2.64;100.00;100082.84;15258007;19;20721;-48
2022/02/07 22:05:25;;;;;;;16.67;4.53;;;;;;;2.67;100.00;100087.97;15280900;19;20711;-49
2022/02/07 22:10:31;;;;;;;14.20;4.07;;;;;;;2.77;100.00;100090.25;15288273;19;20294;-50
2022/02/07 22:15:41;;;;;;;10.93;3.40;;;;;;;2.92;100.00;100088.81;15288552;19;20155;-52
2022/02/07 22:20:52;;;;;;;11.80;3.83;;;;;;;2.96;100.00;100106.25;15261217;19;20151;-49
2022/02/07 22:26:00;;;;;;;11.90;4.30;;;;;;;3.04;100.00;100104.16;15268493;19;20184;-48
2022/02/07 22:31:10;;;;;;;11.97;4.00;;;;;;;3.11;100.00;100102.19;15287383;19;20157;-49
2022/02/07 22:36:17;;;;;;;15.37;4.60;;;;;;;3.17;100.00;100094.88;15287390;19;20175;-51
2022/02/07 22:41:21;;;;;;;13.73;4.53;;;;;;;3.13;100.00;100135.50;15272657;19;20135;-49
2022/02/07 22:46:26;;;;;;;16.00;4.47;;;;;;;3.15;100.00;100152.09;15258834;19;20234;-52
2022/02/07 22:51:30;;;;;;;11.93;4.97;;;;;;;3.18;100.00;100159.88;15283608;19;20156;-51
2022/02/07 22:56:36;;;;;;;14.53;4.30;;;;;;;3.22;100.00;100166.78;15285155;19;20543;-51
2022/02/07 23:01:41;;;;;;;13.03;4.47;;;;;;;3.23;100.00;100184.31;15283385;19;20154;-51
2022/02/07 23:06:46;;;;;;;13.50;4.63;;;;;;;3.24;100.00;100178.13;15254037;19;20148;-51
2022/02/07 23:12:07;;;;;;;17.70;4.73;;;;;;;3.24;100.00;100193.97;15272013;19;20153;-50
2022/02/07 23:30:42;;;;;;;12.87;4.70;;;;;;;3.29;100.00;100199.03;15280874;19;20218;-52
2022/02/07 23:38:42;;;;;;;12.57;4.03;;;;;;;3.34;100.00;100230.53;15281715;19;20830;-48
2022/02/07 23:43:51;;;;;;;12.73;4.00;;;;;;;3.37;100.00;100233.06;15276113;19;20151;-50
2022/02/07 23:49:02;;;;;;;14.90;4.30;;;;;;;3.30;100.00;100237.69;15261974;19;20143;-53
2022/02/07 23:54:18;;;;;;;13.87;4.90;;;;;;;3.34;100.00;100235.81;15256820;19;20178;-48
2022/02/07 23:59:30;;;;;;;12.37;4.27;;;;;;;3.32;100.00;100261.38;15280398;19;20161;-51
